Time,TemperatureF,DewpointF,PressureIn,WindDirection,WindDirectionDegrees,WindSpeedMPH,WindSpeedGustMPH,Humidity,HourlyPrecipIn,Conditions,Clouds,dailyrainin,SoftwareType,DateUTC
2013-07-30 00:00:00,76.0,63.0,-100.00,West,260,11.0,13.0,65,-99.99,,,-99.99,,2013-07-30 04:00:00,
2013-07-30 00:22:00,76.0,62.0,-100.00,West,270,9.0,11.0,61,-99.99,,,-99.99,,2013-07-30 04:22:00,
2013-07-30 00:30:00,75.0,61.0,-100.00,West,270,11.0,16.0,61,-99.99,,,-99.99,,2013-07-30 04:30:00,
2013-07-30 00:43:00,76.0,62.0,-100.00,West,270,11.0,13.0,62,-99.99,,,-99.99,,2013-07-30 04:43:00,
2013-07-30 00:52:00,76.0,63.0,-100.00,West,260,11.0,13.0,65,-99.99,,,-99.99,,2013-07-30 04:52:00,
2013-07-30 01:00:00,74.0,60.0,-100.00,WNW,300,16.0,18.0,60,-99.99,,,-99.99,,2013-07-30 05:00:00,
2013-07-30 01:11:00,75.0,61.0,-100.00,West,270,11.0,16.0,61,-99.99,,,-99.99,,2013-07-30 05:11:00,
2013-07-30 01:22:00,75.0,61.0,-100.00,West,270,11.0,16.0,61,-99.99,,,-99.99,,2013-07-30 05:22:00,
2013-07-30 01:45:00,74.0,60.0,-100.00,WNW,300,16.0,18.0,60,-99.99,,,-99.99,,2013-07-30 05:45:00,
2013-07-30 01:52:00,74.0,60.0,-100.00,WNW,300,16.0,18.0,60,-99.99,,,-99.99,,2013-07-30 05:52:00,
2013-07-30 02:43:00,72.0,59.0,-100.00,NNW,340,16.0,22.0,62,-99.99,,,-99.99,,2013-07-30 06:43:00,
2013-07-30 02:52:00,72.0,59.0,-100.00,NNW,340,16.0,22.0,62,-99.99,,,-99.99,,2013-07-30 06:52:00,
2013-07-30 03:00:00,71.0,58.0,-100.00,NNW,330,16.0,20.0,62,-99.99,,,-99.99,,2013-07-30 07:00:00,
2013-07-30 03:43:00,71.0,58.0,-100.00,NNW,330,16.0,20.0,62,-99.99,,,-99.99,,2013-07-30 07:43:00,
2013-07-30 03:53:00,71.0,58.0,-100.00,NNW,330,16.0,20.0,62,-99.99,,,-99.99,,2013-07-30 07:53:00,
2013-07-30 04:21:00,71.0,58.0,-100.00,NNW,340,13.0,18.0,62,-99.99,,,-99.99,,2013-07-30 08:21:00,
2013-07-30 04:32:00,71.0,58.0,-100.00,NNW,340,13.0,18.0,62,-99.99,,,-99.99,,2013-07-30 08:32:00,
2013-07-30 04:42:00,71.0,56.0,-100.00,NNW,340,13.0,18.0,59,-99.99,,,-99.99,,2013-07-30 08:42:00,
2013-07-30 04:52:00,71.0,56.0,-100.00,NNW,340,13.0,18.0,59,-99.99,,,-99.99,,2013-07-30 08:52:00,
2013-07-30 05:00:00,70.0,57.0,-100.00,NNW,330,11.0,13.0,61,-99.99,,,-99.99,,2013-07-30 09:00:00,
2013-07-30 05:02:00,71.0,56.0,-100.00,NNW,340,13.0,18.0,59,-99.99,,,-99.99,,2013-07-30 09:02:00,
2013-07-30 05:12:00,71.0,56.0,-100.00,NNW,340,13.0,18.0,59,-99.99,,,-99.99,,2013-07-30 09:12:00,
2013-07-30 05:53:00,70.0,57.0,-100.00,NNW,330,11.0,13.0,61,-99.99,,,-99.99,,2013-07-30 09:53:00,
2013-07-30 06:00:00,70.0,57.0,-100.00,WNW,300,13.0,16.0,64,-99.99,,,-99.99,,2013-07-30 10:00:00,
2013-07-30 06:22:00,70.0,57.0,-100.00,NW,310,11.0,16.0,61,-99.99,,,-99.99,,2013-07-30 10:22:00,
2013-07-30 06:43:00,70.0,57.0,-100.00,NW,310,13.0,16.0,62,-99.99,,,-99.99,,2013-07-30 10:43:00,
2013-07-30 07:11:00,70.0,57.0,-100.00,WNW,300,13.0,16.0,62,-99.99,,,-99.99,,2013-07-30 11:11:00,
2013-07-30 07:22:00,70.0,57.0,-100.00,WNW,300,13.0,16.0,62,-99.99,,,-99.99,,2013-07-30 11:22:00,
2013-07-30 07:43:00,70.0,56.0,-100.00,WNW,300,11.0,13.0,61,-99.99,,,-99.99,,2013-07-30 11:43:00,
2013-07-30 07:53:00,70.0,56.0,-100.00,WNW,300,11.0,13.0,61,-99.99,,,-99.99,,2013-07-30 11:53:00,
2013-07-30 08:00:00,69.0,57.0,-100.00,WNW,300,9.0,11.0,63,-99.99,,,-99.99,,2013-07-30 12:00:00,
2013-07-30 08:11:00,70.0,57.0,-100.00,WNW,300,9.0,13.0,63,-99.99,,,-99.99,,2013-07-30 12:11:00,
2013-07-30 08:22:00,70.0,57.0,-100.00,WNW,300,9.0,13.0,63,-99.99,,,-99.99,,2013-07-30 12:22:00,
2013-07-30 08:30:00,69.0,57.0,-100.00,WNW,300,9.0,13.0,65,-99.99,,,-99.99,,2013-07-30 12:30:00,
2013-07-30 08:33:00,70.0,56.0,-100.00,WNW,300,9.0,11.0,62,-99.99,,,-99.99,,2013-07-30 12:33:00,
2013-07-30 08:42:00,69.0,57.0,-100.00,WNW,300,9.0,11.0,63,-99.99,,,-99.99,,2013-07-30 12:42:00,
2013-07-30 08:53:00,69.0,57.0,-100.00,WNW,300,9.0,11.0,63,-99.99,,,-99.99,,2013-07-30 12:53:00,
2013-07-30 09:00:00,69.0,57.0,-100.00,NW,310,13.0,16.0,65,-99.99,,,-99.99,,2013-07-30 13:00:00,
2013-07-30 09:22:00,69.0,57.0,-100.00,WNW,300,9.0,13.0,65,-99.99,,,-99.99,,2013-07-30 13:22:00,
2013-07-30 09:42:00,69.0,57.0,-100.00,NW,310,13.0,16.0,65,-99.99,,,-99.99,,2013-07-30 13:42:00,
2013-07-30 09:52:00,69.0,57.0,-100.00,NW,310,13.0,16.0,65,-99.99,,,-99.99,,2013-07-30 13:52:00,
2013-07-30 10:22:00,70.0,58.0,-100.00,WNW,300,11.0,13.0,65,-99.99,,,-99.99,,2013-07-30 14:22:00,
2013-07-30 10:30:00,70.0,59.0,-100.00,West,270,11.0,13.0,68,-99.99,,,-99.99,,2013-07-30 14:30:00,
2013-07-30 10:32:00,70.0,58.0,-100.00,WNW,300,11.0,13.0,65,-99.99,,,-99.99,,2013-07-30 14:32:00,
2013-07-30 10:53:00,70.0,59.0,-100.00,West,270,11.0,13.0,68,-99.99,,,-99.99,,2013-07-30 14:53:00,
2013-07-30 11:00:00,70.0,58.0,-100.00,West,260,11.0,13.0,65,-99.99,,,-99.99,,2013-07-30 15:00:00,
2013-07-30 11:01:00,70.0,59.0,-100.00,West,270,11.0,13.0,68,-99.99,,,-99.99,,2013-07-30 15:01:00,
2013-07-30 11:22:00,70.0,59.0,-100.00,West,270,11.0,13.0,68,-99.99,,,-99.99,,2013-07-30 15:22:00,
2013-07-30 11:43:00,70.0,58.0,-100.00,West,260,11.0,13.0,65,-99.99,,,-99.99,,2013-07-30 15:43:00,
2013-07-30 11:52:00,70.0,58.0,-100.00,West,260,11.0,13.0,65,-99.99,,,-99.99,,2013-07-30 15:52:00,
2013-07-30 12:00:00,71.0,60.0,-100.00,WSW,250,13.0,16.0,68,-99.99,,,-99.99,,2013-07-30 16:00:00,
2013-07-30 12:43:00,71.0,60.0,-100.00,WSW,250,13.0,16.0,68,-99.99,,,-99.99,,2013-07-30 16:43:00,
2013-07-30 12:52:00,71.0,60.0,-100.00,WSW,250,13.0,16.0,68,-99.99,,,-99.99,,2013-07-30 16:52:00,
2013-07-30 13:00:00,71.0,62.0,-100.00,WSW,240,13.0,16.0,70,-99.99,,,-99.99,,2013-07-30 17:00:00,
2013-07-30 13:32:00,71.0,62.0,-100.00,WSW,240,13.0,16.0,70,-99.99,,,-99.99,,2013-07-30 17:32:00,
2013-07-30 13:43:00,71.0,62.0,-100.00,WSW,240,13.0,16.0,70,-99.99,,,-99.99,,2013-07-30 17:43:00,
2013-07-30 13:53:00,71.0,62.0,-100.00,WSW,240,13.0,16.0,70,-99.99,,,-99.99,,2013-07-30 17:53:00,
2013-07-30 14:42:00,73.0,62.0,-100.00,WSW,250,11.0,13.0,68,-99.99,,,-99.99,,2013-07-30 18:42:00,
2013-07-30 15:22:00,73.0,62.0,-100.00,WSW,250,13.0,16.0,67,-99.99,,,-99.99,,2013-07-30 19:22:00,
2013-07-30 15:43:00,74.0,63.0,-100.00,WSW,240,13.0,18.0,68,-99.99,,,-99.99,,2013-07-30 19:43:00,
2013-07-30 15:52:00,74.0,63.0,-100.00,WSW,240,13.0,18.0,68,-99.99,,,-99.99,,2013-07-30 19:52:00,
2013-07-30 16:00:00,74.0,63.0,-100.00,SW,230,13.0,16.0,69,-99.99,,,-99.99,,2013-07-30 20:00:00,
2013-07-30 16:22:00,74.0,63.0,-100.00,SW,230,13.0,16.0,69,-99.99,,,-99.99,,2013-07-30 20:22:00,
2013-07-30 16:32:00,74.0,63.0,-100.00,SW,230,13.0,16.0,69,-99.99,,,-99.99,,2013-07-30 20:32:00,
2013-07-30 16:43:00,74.0,63.0,-100.00,SW,230,13.0,16.0,69,-99.99,,,-99.99,,2013-07-30 20:43:00,
2013-07-30 16:52:00,74.0,63.0,-100.00,SW,230,13.0,16.0,69,-99.99,,,-99.99,,2013-07-30 20:52:00,
2013-07-30 17:52:00,74.0,62.0,-100.00,WSW,240,13.0,18.0,66,-99.99,,,-99.99,,2013-07-30 21:52:00,
2013-07-30 18:00:00,75.0,63.0,-100.00,WSW,240,13.0,16.0,65,-99.99,,,-99.99,,2013-07-30 22:00:00,
2013-07-30 18:01:00,74.0,62.0,-100.00,WSW,240,13.0,18.0,66,-99.99,,,-99.99,,2013-07-30 22:01:00,
2013-07-30 18:32:00,75.0,62.0,-100.00,WSW,240,13.0,16.0,64,-99.99,,,-99.99,,2013-07-30 22:32:00,
2013-07-30 18:52:00,75.0,63.0,-100.00,WSW,240,13.0,16.0,65,-99.99,,,-99.99,,2013-07-30 22:52:00,
2013-07-30 19:00:00,75.0,63.0,-100.00,WSW,240,13.0,18.0,65,-99.99,,,-99.99,,2013-07-30 23:00:00,
2013-07-30 19:11:00,75.0,63.0,-100.00,WSW,240,13.0,16.0,66,-99.99,,,-99.99,,2013-07-30 23:11:00,
2013-07-30 19:21:00,75.0,63.0,-100.00,WSW,240,13.0,16.0,66,-99.99,,,-99.99,,2013-07-30 23:21:00,
2013-07-30 19:32:00,75.0,63.0,-100.00,WSW,240,13.0,18.0,66,-99.99,,,-99.99,,2013-07-30 23:32:00,
2013-07-30 19:42:00,75.0,63.0,-100.00,WSW,240,13.0,18.0,65,-99.99,,,-99.99,,2013-07-30 23:42:00,
2013-07-30 19:53:00,75.0,63.0,-100.00,WSW,240,13.0,18.0,65,-99.99,,,-99.99,,2013-07-30 23:53:00,
2013-07-30 20:00:00,75.0,65.0,-100.00,West,270,9.0,11.0,70,-99.99,,,-99.99,,2013-07-31 00:00:00,
2013-07-30 20:31:00,75.0,65.0,-100.00,West,270,9.0,11.0,70,-99.99,,,-99.99,,2013-07-31 00:31:00,
2013-07-30 20:43:00,75.0,65.0,-100.00,West,270,9.0,11.0,70,-99.99,,,-99.99,,2013-07-31 00:43:00,
2013-07-30 20:53:00,75.0,65.0,-100.00,West,270,9.0,11.0,70,-99.99,,,-99.99,,2013-07-31 00:53:00,
2013-07-30 21:00:00,74.0,65.0,-100.00,West,260,7.0,9.0,73,-99.99,,,-99.99,,2013-07-31 01:00:00,
2013-07-30 21:11:00,75.0,64.0,-100.00,West,270,9.0,11.0,68,-99.99,,,-99.99,,2013-07-31 01:11:00,
2013-07-30 21:22:00,75.0,64.0,-100.00,West,270,9.0,11.0,68,-99.99,,,-99.99,,2013-07-31 01:22:00,
2013-07-30 21:52:00,74.0,65.0,-100.00,West,260,7.0,9.0,73,-99.99,,,-99.99,,2013-07-31 01:52:00,
2013-07-30 22:00:00,74.0,64.0,-100.00,West,280,7.0,7.0,71,-99.99,,,-99.99,,2013-07-31 02:00:00,
2013-07-30 22:21:00,74.0,63.0,-100.00,West,280,7.0,9.0,69,-99.99,,,-99.99,,2013-07-31 02:21:00,
2013-07-30 22:32:00,74.0,63.0,-100.00,West,280,7.0,9.0,69,-99.99,,,-99.99,,2013-07-31 02:32:00,
2013-07-30 22:42:00,74.0,63.0,-100.00,West,280,7.0,9.0,69,-99.99,,,-99.99,,2013-07-31 02:42:00,
2013-07-30 23:42:00,74.0,65.0,-100.00,West,280,7.0,7.0,73,-99.99,,,-99.99,,2013-07-31 03:42:00,
2013-07-30 23:52:00,74.0,63.0,-100.00,WNW,290,7.0,9.0,70,-99.99,,,-99.99,,2013-07-31 03:52:00,